Time;durP1;ratioP1;P1;durP2;ratioP2;P2;SDS_P1;SDS_P2;PMS_P1;PMS_P2;Temp;Humidity;BMP_temperature;BMP_pressure;BME280_temperature;BME280_humidity;BME280_pressure;Samples;Min_cycle;Max_cycle;Signal;HPM_P1;HPM_P2
2023/08/04 00:00:55;;;;;;;9.82;2.85;;;16.30;99.90;;;;;;5074514;28;20039;-74
2023/08/04 00:03:21;;;;;;;10.63;2.90;;;16.30;99.90;;;;;;5075972;28;20102;-74
2023/08/04 00:05:47;;;;;;;11.77;2.83;;;16.30;99.90;;;;;;5074634;28;20132;-73
2023/08/04 00:08:12;;;;;;;9.82;3.63;;;16.30;99.90;;;;;;5076002;28;20056;-74
2023/08/04 00:10:38;;;;;;;9.43;2.65;;;16.30;99.90;;;;;;5074563;28;20107;-73
2023/08/04 00:13:04;;;;;;;13.27;2.60;;;16.30;99.90;;;;;;5075661;28;20064;-75
2023/08/04 00:15:29;;;;;;;7.05;2.67;;;16.30;99.90;;;;;;5074727;28;20404;-74
2023/08/04 00:17:56;;;;;;;11.45;3.13;;;16.30;99.90;;;;;;5074670;28;20016;-75
2023/08/04 00:20:22;;;;;;;8.38;2.58;;;16.40;99.90;;;;;;5069620;28;20025;-74
2023/08/04 00:22:47;;;;;;;7.35;2.65;;;16.40;99.90;;;;;;5073989;28;20038;-74
2023/08/04 00:25:13;;;;;;;10.18;2.92;;;16.40;99.90;;;;;;5074326;28;20408;-75
2023/08/04 00:27:39;;;;;;;10.63;2.67;;;16.50;99.90;;;;;;5074065;28;20021;-74
2023/08/04 00:30:05;;;;;;;7.20;2.53;;;16.50;99.90;;;;;;5074076;28;20037;-76
2023/08/04 00:32:31;;;;;;;7.25;2.67;;;16.50;99.90;;;;;;5074785;28;20098;-75
2023/08/04 00:34:57;;;;;;;10.02;3.05;;;16.50;99.90;;;;;;5072501;28;20032;-77
2023/08/04 00:37:22;;;;;;;9.32;2.40;;;16.40;99.90;;;;;;5075113;28;20492;-76
2023/08/04 00:39:48;;;;;;;8.70;2.67;;;16.40;99.90;;;;;;5074098;28;20096;-73
2023/08/04 00:42:14;;;;;;;7.97;2.65;;;16.40;99.90;;;;;;5073999;28;20020;-75
2023/08/04 00:44:39;;;;;;;10.63;2.60;;;16.40;99.90;;;;;;5073926;28;20754;-75
2023/08/04 00:47:06;;;;;;;10.05;3.05;;;16.40;99.90;;;;;;5074384;28;20370;-75
2023/08/04 00:49:32;;;;;;;5.40;2.17;;;16.30;99.90;;;;;;5073782;28;20037;-73
2023/08/04 00:51:58;;;;;;;7.60;2.63;;;16.30;99.90;;;;;;5074718;28;20021;-74
2023/08/04 00:54:24;;;;;;;9.18;3.25;;;16.30;99.90;;;;;;5072956;28;20028;-75
2023/08/04 00:56:54;;;;;;;6.78;2.53;;;16.40;99.90;;;;;;5073794;28;20013;-73
2023/08/04 00:59:20;;;;;;;9.95;2.53;;;16.40;99.90;;;;;;5072394;28;20024;-73
2023/08/04 01:01:48;;;;;;;10.85;2.95;;;16.30;99.90;;;;;;5075056;28;20031;-73
2023/08/04 01:04:13;;;;;;;11.23;2.50;;;16.40;99.90;;;;;;5070806;28;20060;-73
2023/08/04 01:06:59;;;;;;;7.28;2.25;;;16.40;99.90;;;;;;5068239;28;20464;-71
2023/08/04 01:09:53;;;;;;;10.05;2.72;;;16.40;99.90;;;;;;5067113;28;20064;-74
2023/08/04 01:12:22;;;;;;;9.52;2.60;;;16.30;99.90;;;;;;5072316;28;20488;-74
2023/08/04 01:14:52;;;;;;;8.60;2.65;;;16.30;99.90;;;;;;5073563;28;20028;-74
2023/08/04 01:17:29;;;;;;;10.38;3.00;;;16.30;99.90;;;;;;5071293;28;20029;-71
2023/08/04 01:19:56;;;;;;;9.18;3.00;;;16.30;99.90;;;;;;5073818;28;20104;-73
2023/08/04 01:22:22;;;;;;;11.95;2.88;;;16.30;99.90;;;;;;5068987;28;20079;-73
2023/08/04 01:24:49;;;;;;;9.70;2.80;;;16.30;99.90;;;;;;5074893;28;20546;-73
2023/08/04 01:27:23;;;;;;;9.18;3.72;;;16.30;99.90;;;;;;5071569;28;20021;-73
2023/08/04 01:29:50;;;;;;;9.27;3.13;;;16.40;99.90;;;;;;5073509;28;20032;-74
2023/08/04 01:32:17;;;;;;;4.53;2.53;;;16.40;99.90;;;;;;5070778;28;20031;-73
2023/08/04 01:34:44;;;;;;;6.60;3.13;;;16.50;99.90;;;;;;5074525;28;20158;-73
2023/08/04 01:37:10;;;;;;;11.27;2.92;;;16.50;99.90;;;;;;5070920;28;20016;-74
2023/08/04 01:39:37;;;;;;;9.93;2.60;;;16.50;99.90;;;;;;5074665;28;20023;-74
2023/08/04 01:42:04;;;;;;;10.15;2.97;;;16.50;99.90;;;;;;5071547;28;20016;-73
2023/08/04 01:44:29;;;;;;;6.35;2.70;;;16.40;99.90;;;;;;5074265;28;20062;-73
2023/08/04 01:46:55;;;;;;;7.35;3.10;;;16.50;99.90;;;;;;5070749;28;20028;-74
2023/08/04 01:49:20;;;;;;;6.15;2.42;;;16.40;99.90;;;;;;5072993;28;20032;-74
2023/08/04 01:51:46;;;;;;;8.88;2.50;;;16.50;99.90;;;;;;5070059;28;20021;-75
2023/08/04 01:54:12;;;;;;;7.70;2.53;;;16.50;99.90;;;;;;5073948;28;20067;-73
2023/08/04 01:56:37;;;;;;;9.43;2.55;;;16.40;99.90;;;;;;5070620;28;20020;-73
2023/08/04 01:59:03;;;;;;;5.88;2.30;;;16.40;99.90;;;;;;5074067;28;20033;-73
2023/08/04 02:01:29;;;;;;;8.85;3.33;;;16.30;99.90;;;;;;5070699;28;20023;-74
2023/08/04 02:03:54;;;;;;;13.40;2.83;;;16.30;99.90;;;;;;5073954;28;20035;-73
2023/08/04 02:06:20;;;;;;;9.77;2.67;;;16.30;99.90;;;;;;5071365;28;20028;-73
2023/08/04 02:08:46;;;;;;;9.93;2.70;;;16.30;99.90;;;;;;5074028;28;20032;-73
2023/08/04 02:11:12;;;;;;;6.28;2.88;;;16.30;99.90;;;;;;5068852;28;20092;-73
2023/08/04 02:13:38;;;;;;;9.77;2.40;;;16.30;99.90;;;;;;5073652;28;20516;-75
2023/08/04 02:16:03;;;;;;;7.35;2.75;;;16.20;99.90;;;;;;5071030;28;20016;-74
2023/08/04 02:18:29;;;;;;;9.95;2.90;;;16.30;99.90;;;;;;5074298;28;20435;-74
2023/08/04 02:20:54;;;;;;;10.65;3.15;;;16.20;99.90;;;;;;5066513;28;20750;-74
2023/08/04 02:23:20;;;;;;;11.10;3.15;;;16.20;99.90;;;;;;5072345;28;20048;-74
2023/08/04 02:25:46;;;;;;;8.02;2.53;;;16.20;99.90;;;;;;5070735;28;20025;-73
2023/08/04 02:28:11;;;;;;;5.13;2.15;;;16.10;99.90;;;;;;5072221;28;20500;-73
2023/08/04 02:30:37;;;;;;;7.28;2.65;;;16.20;99.90;;;;;;5057384;28;20027;-73
2023/08/04 02:33:03;;;;;;;9.20;2.60;;;16.20;99.90;;;;;;5071096;28;20583;-72
2023/08/04 02:35:28;;;;;;;6.25;2.78;;;16.10;99.90;;;;;;5064585;28;20739;-74
2023/08/04 02:37:54;;;;;;;11.93;2.30;;;16.10;99.90;;;;;;5064971;28;20033;-74
2023/08/04 02:40:19;;;;;;;5.97;2.13;;;16.10;99.90;;;;;;5059313;28;20021;-73
2023/08/04 02:42:45;;;;;;;8.93;2.53;;;16.10;99.90;;;;;;5068899;28;20031;-75
2023/08/04 02:45:11;;;;;;;9.45;2.50;;;16.00;99.90;;;;;;5065256;28;20021;-74
2023/08/04 02:47:36;;;;;;;9.32;2.72;;;16.10;99.90;;;;;;5069279;28;20025;-73
2023/08/04 02:50:06;;;;;;;13.13;4.00;;;16.00;99.90;;;;;;5065315;28;20088;-73
2023/08/04 02:52:33;;;;;;;9.32;2.22;;;16.00;99.90;;;;;;5063680;28;20581;-74
2023/08/04 02:54:58;;;;;;;8.57;2.50;;;15.90;99.90;;;;;;5061392;28;20029;-73
2023/08/04 02:57:30;;;;;;;6.20;2.42;;;15.90;99.90;;;;;;5063825;28;20047;-75
2023/08/04 02:59:56;;;;;;;9.45;2.50;;;15.90;99.90;;;;;;5060945;28;20389;-75
2023/08/04 03:02:22;;;;;;;8.10;2.50;;;15.90;99.90;;;;;;5060269;28;20045;-72
2023/08/04 03:04:48;;;;;;;6.25;2.30;;;15.90;99.90;;;;;;5051564;28;20501;-74
2023/08/04 03:07:13;;;;;;;11.95;2.88;;;15.90;99.90;;;;;;5069283;28;20522;-77
2023/08/04 03:09:39;;;;;;;10.35;2.70;;;16.00;99.90;;;;;;5070932;28;20032;-75
2023/08/04 03:12:05;;;;;;;7.03;2.80;;;16.00;99.90;;;;;;5071664;28;20133;-76
2023/08/04 03:14:31;;;;;;;7.38;2.38;;;15.90;99.90;;;;;;5070211;28;20399;-74
2023/08/04 03:16:56;;;;;;;10.85;3.20;;;15.90;99.90;;;;;;5072678;28;20064;-76
2023/08/04 03:19:22;;;;;;;10.07;2.53;;;16.00;99.90;;;;;;5070128;28;20047;-75
2023/08/04 03:21:48;;;;;;;9.00;2.75;;;16.00;99.90;;;;;;5066015;28;20024;-75
2023/08/04 03:24:13;;;;;;;9.32;3.08;;;16.00;99.90;;;;;;5069583;28;20106;-77
2023/08/04 03:26:39;;;;;;;10.43;2.58;;;16.00;99.90;;;;;;5071993;28;20028;-75
2023/08/04 03:29:04;;;;;;;6.22;2.25;;;16.00;99.90;;;;;;5069247;28;20028;-75
2023/08/04 03:31:30;;;;;;;6.32;2.70;;;16.00;99.90;;;;;;5072344;28;20029;-74
2023/08/04 03:33:56;;;;;;;9.30;2.65;;;16.00;99.90;;;;;;5068396;28;20563;-74
2023/08/04 03:36:21;;;;;;;8.40;3.03;;;16.00;99.90;;;;;;5072937;28;20081;-75
2023/08/04 03:38:47;;;;;;;8.25;3.00;;;16.00;99.90;;;;;;5069648;28;20013;-74
2023/08/04 03:41:13;;;;;;;9.15;2.80;;;16.00;99.90;;;;;;5071237;28;20119;-74
2023/08/04 03:43:38;;;;;;;6.32;2.35;;;15.90;99.90;;;;;;5068696;28;20020;-73
2023/08/04 03:46:04;;;;;;;5.53;3.53;;;15.90;99.90;;;;;;5071961;28;20024;-74
2023/08/04 03:48:29;;;;;;;10.43;2.45;;;15.90;99.90;;;;;;5068978;28;20047;-73
2023/08/04 03:50:55;;;;;;;13.52;3.40;;;15.90;99.90;;;;;;5072327;28;20039;-76
2023/08/04 03:53:21;;;;;;;12.68;2.90;;;15.90;99.90;;;;;;5067030;28;20040;-74
2023/08/04 03:55:46;;;;;;;8.05;2.72;;;15.90;99.90;;;;;;5071196;28;20054;-73
2023/08/04 03:58:12;;;;;;;9.57;2.75;;;15.90;99.90;;;;;;5067727;28;20025;-76
2023/08/04 04:00:38;;;;;;;10.95;3.72;;;16.00;99.90;;;;;;5069976;28;20025;-76
2023/08/04 04:03:04;;;;;;;6.38;2.55;;;16.00;99.90;;;;;;5067080;28;20033;-75
2023/08/04 04:05:30;;;;;;;10.07;3.55;;;16.00;99.90;;;;;;5070869;28;20029;-74
2023/08/04 04:07:56;;;;;;;10.15;2.63;;;16.00;99.90;;;;;;5067227;28;20115;-74
2023/08/04 04:10:22;;;;;;;6.70;2.38;;;16.00;99.90;;;;;;5071249;28;20166;-75
2023/08/04 04:12:47;;;;;;;11.57;2.92;;;16.00;99.90;;;;;;5067017;28;20056;-74
2023/08/04 04:15:13;;;;;;;11.95;4.00;;;16.00;99.90;;;;;;5070206;28;20024;-73
2023/08/04 04:17:39;;;;;;;13.07;3.10;;;16.00;99.90;;;;;;5067692;28;20036;-75
2023/08/04 04:20:05;;;;;;;8.98;2.70;;;16.00;99.90;;;;;;5068558;28;20414;-74
2023/08/04 04:22:33;;;;;;;10.98;2.67;;;16.00;99.90;;;;;;5063528;28;20508;-74
2023/08/04 04:24:59;;;;;;;9.98;2.72;;;16.10;99.90;;;;;;5069568;28;20043;-75
2023/08/04 04:27:25;;;;;;;8.43;2.65;;;16.00;99.90;;;;;;5071457;28;20488;-72
2023/08/04 04:29:51;;;;;;;13.80;3.45;;;16.00;99.90;;;;;;5065463;28;20067;-74
2023/08/04 04:32:16;;;;;;;11.13;3.08;;;16.00;99.90;;;;;;5065766;28;20410;-75
2023/08/04 04:34:42;;;;;;;16.33;3.65;;;16.00;99.90;;;;;;5064548;28;20040;-76
2023/08/04 04:37:08;;;;;;;14.73;4.22;;;16.10;99.90;;;;;;5059559;28;20013;-72
2023/08/04 04:39:33;;;;;;;10.98;3.03;;;16.10;99.90;;;;;;5059379;28;20520;-75
2023/08/04 04:41:59;;;;;;;4.25;2.65;;;16.10;99.90;;;;;;5062317;28;20029;-76
2023/08/04 04:44:25;;;;;;;6.70;3.00;;;16.10;99.90;;;;;;5074927;28;20033;-74
2023/08/04 04:46:50;;;;;;;11.13;3.35;;;16.10;99.90;;;;;;5072431;28;20091;-76
2023/08/04 04:49:16;;;;;;;14.18;3.40;;;16.00;99.90;;;;;;5075719;28;20040;-72
2023/08/04 04:51:43;;;;;;;14.07;3.78;;;16.00;99.90;;;;;;5071846;28;20843;-74
2023/08/04 04:54:09;;;;;;;10.68;3.47;;;16.00;99.90;;;;;;5075269;28;20549;-74
2023/08/04 04:56:35;;;;;;;16.38;3.70;;;15.90;99.90;;;;;;5070755;28;20482;-74
2023/08/04 04:59:00;;;;;;;15.50;4.72;;;15.90;99.90;;;;;;5073696;28;20052;-76
2023/08/04 05:01:26;;;;;;;10.02;3.10;;;15.90;99.90;;;;;;5061521;28;20017;-74
2023/08/04 05:03:52;;;;;;;10.88;3.10;;;15.90;99.90;;;;;;5062876;28;20041;-76
2023/08/04 05:06:17;;;;;;;9.07;2.95;;;15.90;99.90;;;;;;5062604;28;20017;-73
2023/08/04 05:08:43;;;;;;;12.77;3.13;;;15.90;99.90;;;;;;5063626;28;20040;-74
2023/08/04 05:11:08;;;;;;;5.75;2.60;;;15.90;99.90;;;;;;5063146;28;20028;-74
2023/08/04 05:13:34;;;;;;;10.20;3.40;;;15.90;99.90;;;;;;5061725;28;20056;-76
2023/08/04 05:16:00;;;;;;;10.93;3.03;;;15.90;99.90;;;;;;5061071;28;20155;-74
2023/08/04 05:18:25;;;;;;;10.50;3.00;;;15.90;99.90;;;;;;5062414;28;20032;-74
2023/08/04 05:20:51;;;;;;;9.43;3.10;;;15.90;99.90;;;;;;5060693;28;20036;-75
2023/08/04 05:23:16;;;;;;;11.65;5.28;;;15.90;99.90;;;;;;5061469;28;20045;-74
2023/08/04 05:25:43;;;;;;;8.80;3.28;;;15.90;99.90;;;;;;5059795;28;20061;-76
2023/08/04 05:28:24;;;;;;;7.95;2.92;;;15.90;99.90;;;;;;5059863;28;20044;-77
2023/08/04 05:30:55;;;;;;;10.90;2.88;;;16.00;99.90;;;;;;5059843;28;20377;-74
2023/08/04 05:33:21;;;;;;;11.88;3.30;;;16.00;99.90;;;;;;5060064;28;20063;-76
2023/08/04 05:35:47;;;;;;;5.25;2.50;;;16.00;99.90;;;;;;5059111;28;20385;-76
2023/08/04 05:38:13;;;;;;;8.32;2.65;;;16.10;99.90;;;;;;5060425;28;20027;-74
2023/08/04 05:40:43;;;;;;;9.82;3.38;;;16.10;99.90;;;;;;5058385;28;20025;-74
2023/08/04 05:43:10;;;;;;;10.68;2.90;;;16.00;99.90;;;;;;5059629;28;20024;-74
2023/08/04 05:45:41;;;;;;;4.93;2.60;;;15.80;99.90;;;;;;5056569;28;20032;-74
2023/08/04 05:48:07;;;;;;;6.30;2.20;;;15.80;99.90;;;;;;5058642;28;20033;-75
2023/08/04 05:50:33;;;;;;;9.50;3.20;;;15.80;99.90;;;;;;5057117;28;20025;-74
2023/08/04 05:52:59;;;;;;;10.10;3.03;;;15.80;99.90;;;;;;5059902;28;20029;-75
2023/08/04 05:55:25;;;;;;;7.78;2.92;;;15.90;99.90;;;;;;5058331;28;20021;-75
2023/08/04 05:57:51;;;;;;;8.88;2.95;;;15.90;99.90;;;;;;5058496;28;20025;-75
2023/08/04 06:00:17;;;;;;;9.30;2.88;;;16.00;99.90;;;;;;5058116;28;20021;-76
2023/08/04 06:02:44;;;;;;;10.57;2.80;;;16.10;99.90;;;;;;5060018;28;20516;-75
2023/08/04 06:05:11;;;;;;;8.45;3.00;;;16.20;99.90;;;;;;5057242;28;20074;-74
2023/08/04 06:07:37;;;;;;;8.73;3.60;;;16.20;99.90;;;;;;5060509;28;20029;-75
2023/08/04 06:10:03;;;;;;;12.77;3.50;;;16.30;99.90;;;;;;5058409;28;20091;-76
2023/08/04 06:12:29;;;;;;;7.93;3.97;;;16.40;99.90;;;;;;5058644;28;20029;-75
2023/08/04 06:14:55;;;;;;;5.38;2.60;;;16.50;99.90;;;;;;5056820;28;20032;-75
2023/08/04 06:17:21;;;;;;;6.78;2.65;;;16.50;99.90;;;;;;5061257;28;20549;-74
2023/08/04 06:19:46;;;;;;;8.27;3.05;;;16.50;99.90;;;;;;5057778;28;20048;-75
2023/08/04 06:22:15;;;;;;;8.20;2.85;;;16.50;99.90;;;;;;5060566;28;20515;-76
2023/08/04 06:24:41;;;;;;;10.65;2.83;;;16.40;99.90;;;;;;5058476;28;20525;-76
2023/08/04 06:27:07;;;;;;;8.93;2.78;;;16.40;99.90;;;;;;5060446;28;20047;-75
2023/08/04 06:29:34;;;;;;;6.00;2.53;;;16.40;99.90;;;;;;5058743;28;20499;-74
2023/08/04 06:32:00;;;;;;;10.45;3.20;;;16.30;99.90;;;;;;5061019;28;20483;-74
2023/08/04 06:34:25;;;;;;;6.00;3.05;;;16.40;99.90;;;;;;5059055;28;20058;-78
2023/08/04 06:36:51;;;;;;;13.10;3.05;;;16.40;99.90;;;;;;5060962;28;20027;-72
2023/08/04 06:39:17;;;;;;;12.38;3.53;;;16.40;99.90;;;;;;5058586;28;20025;-76
2023/08/04 06:41:43;;;;;;;7.38;2.60;;;16.50;99.90;;;;;;5060991;28;20051;-74
2023/08/04 06:44:09;;;;;;;7.97;3.10;;;16.50;99.90;;;;;;5058671;28;20037;-75
2023/08/04 06:46:34;;;;;;;9.00;3.25;;;16.60;99.90;;;;;;5061025;28;20492;-76
2023/08/04 06:49:00;;;;;;;10.07;2.83;;;16.90;99.90;;;;;;5058719;28;20396;-74
2023/08/04 06:51:26;;;;;;;8.55;3.13;;;17.10;99.90;;;;;;5054764;28;20025;-74
2023/08/04 06:53:52;;;;;;;18.67;4.50;;;17.40;99.90;;;;;;5051603;28;20440;-75
2023/08/04 06:56:18;;;;;;;12.93;3.75;;;17.50;99.90;;;;;;5057938;28;20025;-73
2023/08/04 06:58:44;;;;;;;17.48;3.05;;;17.50;99.90;;;;;;5057748;28;20120;-75
2023/08/04 07:01:10;;;;;;;7.05;2.70;;;17.40;99.90;;;;;;5060543;28;20049;-74
2023/08/04 07:03:35;;;;;;;7.70;3.10;;;17.40;99.90;;;;;;5057624;28;20035;-74
2023/08/04 07:06:01;;;;;;;8.90;2.88;;;17.30;99.90;;;;;;5060126;28;20024;-74
2023/08/04 07:08:26;;;;;;;10.50;3.10;;;17.30;99.90;;;;;;5058754;28;20073;-73
2023/08/04 07:10:52;;;;;;;9.82;3.08;;;17.20;99.90;;;;;;5061457;28;20021;-74
2023/08/04 07:13:18;;;;;;;5.97;2.63;;;17.20;99.90;;;;;;5058587;28;20069;-74
2023/08/04 07:15:57;;;;;;;9.82;3.35;;;17.30;99.90;;;;;;5061037;28;20017;-75
2023/08/04 07:18:23;;;;;;;9.50;2.90;;;17.30;99.90;;;;;;5061061;28;20044;-75
2023/08/04 07:20:49;;;;;;;7.05;2.28;;;17.40;99.90;;;;;;5051361;28;20029;-74
2023/08/04 07:23:15;;;;;;;13.15;3.47;;;17.60;99.90;;;;;;5056357;28;20539;-74
2023/08/04 07:25:41;;;;;;;10.10;3.17;;;17.80;99.90;;;;;;5059529;28;20036;-73
2023/08/04 07:28:06;;;;;;;7.72;4.03;;;18.00;99.90;;;;;;5060895;28;20056;-73
2023/08/04 07:30:32;;;;;;;7.22;2.53;;;18.10;99.90;;;;;;5058989;28;20037;-75
2023/08/04 07:32:58;;;;;;;8.27;2.55;;;18.10;99.90;;;;;;5060954;28;20025;-73
2023/08/04 07:35:24;;;;;;;5.40;2.30;;;18.10;99.90;;;;;;5059084;28;20100;-71
2023/08/04 07:37:50;;;;;;;4.82;2.40;;;18.00;99.90;;;;;;5058757;28;20025;-74
2023/08/04 07:40:16;;;;;;;7.78;2.95;;;17.90;99.90;;;;;;5059440;28;20028;-73
2023/08/04 07:42:42;;;;;;;8.93;2.25;;;17.90;99.90;;;;;;5057321;28;20385;-71
2023/08/04 07:45:08;;;;;;;9.35;2.60;;;17.90;99.90;;;;;;5059357;28;20017;-72
2023/08/04 07:47:34;;;;;;;9.60;2.60;;;17.80;99.90;;;;;;5058619;28;20619;-72
2023/08/04 07:50:00;;;;;;;9.23;3.35;;;17.70;99.90;;;;;;5059170;28;20079;-74
2023/08/04 07:52:25;;;;;;;12.05;2.70;;;17.70;99.90;;;;;;5058744;28;20374;-73
2023/08/04 07:54:52;;;;;;;7.50;2.42;;;17.70;99.90;;;;;;5058801;28;20505;-74
2023/08/04 07:57:18;;;;;;;8.27;2.65;;;17.60;99.90;;;;;;5058611;28;20021;-71
2023/08/04 07:59:43;;;;;;;11.20;2.42;;;17.80;99.90;;;;;;5059080;28;20083;-74
2023/08/04 08:02:09;;;;;;;7.22;2.60;;;18.10;99.90;;;;;;5058261;28;20021;-73
2023/08/04 08:04:35;;;;;;;8.82;2.67;;;18.30;99.90;;;;;;5058054;28;20116;-70
2023/08/04 08:07:00;;;;;;;7.78;2.75;;;18.40;99.90;;;;;;5058651;28;20433;-73
2023/08/04 08:09:26;;;;;;;8.95;2.60;;;18.40;99.90;;;;;;5060754;28;20036;-75
2023/08/04 08:11:52;;;;;;;6.15;2.20;;;18.60;99.90;;;;;;5069701;28;20032;-73
2023/08/04 08:14:17;;;;;;;9.10;2.53;;;18.60;99.90;;;;;;5073146;28;20515;-73
2023/08/04 08:16:43;;;;;;;6.07;1.98;;;18.70;99.90;;;;;;5076577;28;20575;-76
2023/08/04 08:19:09;;;;;;;5.13;2.25;;;18.60;99.90;;;;;;5067916;28;20021;-75
2023/08/04 08:21:35;;;;;;;4.80;2.55;;;18.60;99.90;;;;;;5070583;28;20020;-75
2023/08/04 08:24:01;;;;;;;8.23;2.35;;;18.60;99.90;;;;;;5064520;28;20536;-75
2023/08/04 08:26:27;;;;;;;11.88;2.38;;;18.50;99.90;;;;;;5071491;28;20036;-74
2023/08/04 08:28:53;;;;;;;14.98;2.80;;;18.60;99.90;;;;;;5071150;28;20123;-73
2023/08/04 08:31:18;;;;;;;8.85;2.45;;;18.70;99.90;;;;;;5075452;28;20021;-74
2023/08/04 08:33:44;;;;;;;5.93;2.72;;;18.80;99.90;;;;;;5072114;28;20493;-74
2023/08/04 08:36:10;;;;;;;5.50;2.38;;;18.90;99.90;;;;;;5069667;28;20088;-74
2023/08/04 08:38:35;;;;;;;4.65;2.13;;;18.80;99.90;;;;;;5064882;28;20381;-74
2023/08/04 08:41:02;;;;;;;6.07;2.70;;;18.80;99.90;;;;;;5061243;28;20039;-74
2023/08/04 08:43:28;;;;;;;9.55;2.67;;;18.70;99.90;;;;;;5069509;28;20028;-73
2023/08/04 08:45:55;;;;;;;7.95;3.13;;;18.60;99.90;;;;;;5064702;28;20043;-74
2023/08/04 08:48:21;;;;;;;5.78;2.85;;;18.80;99.90;;;;;;5061380;28;20040;-73
2023/08/04 08:50:54;;;;;;;4.88;2.10;;;18.90;99.90;;;;;;5066722;28;20116;-75
2023/08/04 08:53:25;;;;;;;8.75;3.00;;;19.00;99.90;;;;;;5069306;28;20041;-72
2023/08/04 08:55:51;;;;;;;7.03;2.40;;;19.10;99.90;;;;;;5074411;28;20063;-74
2023/08/04 08:58:17;;;;;;;6.18;2.30;;;19.10;99.90;;;;;;5059327;28;20021;-75
2023/08/04 09:00:43;;;;;;;7.68;3.25;;;19.10;99.90;;;;;;5061119;28;20036;-73
2023/08/04 09:03:09;;;;;;;4.82;2.50;;;19.20;99.90;;;;;;5058588;28;20053;-75
2023/08/04 09:05:35;;;;;;;7.20;2.13;;;19.40;99.90;;;;;;5070696;28;20632;-76
2023/08/04 09:08:02;;;;;;;6.53;2.65;;;19.50;99.90;;;;;;5073987;28;20111;-74
2023/08/04 09:10:28;;;;;;;4.13;2.15;;;19.80;99.90;;;;;;5075834;28;20051;-76
2023/08/04 09:12:56;;;;;;;6.70;2.58;;;20.00;99.90;;;;;;5073790;28;20020;-76
2023/08/04 09:15:33;;;;;;;8.88;2.20;;;19.90;99.90;;;;;;5074614;28;20102;-74
2023/08/04 09:17:59;;;;;;;6.50;1.80;;;20.10;99.90;;;;;;5075278;28;20012;-73
2023/08/04 09:20:29;;;;;;;5.68;1.88;;;20.10;99.90;;;;;;5067735;28;20025;-77
2023/08/04 09:22:54;;;;;;;4.30;1.80;;;20.30;99.90;;;;;;5055046;28;20044;-75
2023/08/04 09:25:20;;;;;;;6.95;2.50;;;20.40;99.90;;;;;;5047952;28;20082;-73
2023/08/04 09:27:49;;;;;;;9.98;2.55;;;20.20;99.90;;;;;;5061415;28;20091;-74
2023/08/04 09:30:16;;;;;;;5.40;2.03;;;19.60;99.90;;;;;;5065103;28;20082;-75
2023/08/04 09:32:47;;;;;;;7.40;2.60;;;18.90;99.90;;;;;;5069326;28;20047;-76
2023/08/04 09:35:13;;;;;;;8.35;2.20;;;18.50;99.90;;;;;;5071339;28;20575;-73
2023/08/04 09:37:40;;;;;;;5.85;2.53;;;18.10;99.90;;;;;;5066229;28;20040;-75
2023/08/04 09:40:19;;;;;;;3.33;2.40;;;17.80;99.90;;;;;;5061107;28;20021;-75
2023/08/04 09:42:46;;;;;;;6.22;3.08;;;17.50;99.90;;;;;;5059685;28;20029;-75
2023/08/04 09:45:16;;;;;;;8.00;3.25;;;17.20;99.90;;;;;;5059401;28;20017;-76
2023/08/04 09:47:49;;;;;;;8.70;3.72;;;17.10;99.90;;;;;;5059939;28;20054;-75
2023/08/04 09:50:17;;;;;;;12.30;2.97;;;17.20;99.90;;;;;;5058224;28;20136;-74
2023/08/04 09:52:44;;;;;;;10.02;3.20;;;17.40;99.90;;;;;;5059919;28;20473;-74
2023/08/04 09:55:10;;;;;;;6.30;2.80;;;17.60;99.90;;;;;;5058807;28;20037;-73
2023/08/04 09:57:37;;;;;;;5.57;2.83;;;17.80;99.90;;;;;;5063016;28;20066;-73
2023/08/04 10:00:05;;;;;;;14.85;3.35;;;18.00;99.90;;;;;;5060220;28;20481;-72
2023/08/04 10:02:31;;;;;;;10.95;3.45;;;18.20;99.90;;;;;;5062454;28;20023;-73
2023/08/04 10:04:59;;;;;;;8.95;3.17;;;18.50;99.90;;;;;;5060425;28;20524;-73
2023/08/04 10:07:25;;;;;;;7.28;2.90;;;18.90;99.90;;;;;;5064414;28;20028;-74
2023/08/04 10:09:51;;;;;;;4.45;2.55;;;19.30;99.90;;;;;;5060448;28;20043;-74
2023/08/04 10:12:17;;;;;;;4.13;1.77;;;19.60;99.90;;;;;;5064010;28;20055;-74
2023/08/04 10:14:44;;;;;;;6.82;2.45;;;20.00;99.90;;;;;;5060665;28;20032;-75
2023/08/04 10:17:10;;;;;;;7.80;2.13;;;20.40;99.90;;;;;;5066659;28;20521;-73
2023/08/04 10:19:36;;;;;;;4.57;2.05;;;20.80;99.90;;;;;;5066233;28;20029;-73
2023/08/04 10:22:09;;;;;;;4.55;1.88;;;20.90;99.90;;;;;;5050557;28;20012;-74
2023/08/04 10:24:36;;;;;;;7.53;2.47;;;20.80;99.90;;;;;;5059607;28;20505;-73
2023/08/04 10:27:19;;;;;;;4.45;2.05;;;20.80;99.90;;;;;;5063638;28;20106;-75
2023/08/04 10:29:45;;;;;;;4.00;2.13;;;20.90;99.90;;;;;;5062723;28;20111;-73
2023/08/04 10:32:11;;;;;;;6.05;2.00;;;20.70;99.90;;;;;;5060873;28;20017;-74
2023/08/04 10:34:50;;;;;;;7.30;2.08;;;20.60;99.90;;;;;;5062873;28;20025;-73
2023/08/04 10:37:18;;;;;;;4.85;2.40;;;20.50;99.90;;;;;;5065940;28;20024;-73
2023/08/04 10:39:58;;;;;;;5.18;1.98;;;20.40;99.90;;;;;;5072290;28;20036;-73
2023/08/04 10:42:28;;;;;;;5.05;1.60;;;20.70;99.90;;;;;;5066661;28;20451;-76
2023/08/04 10:45:05;;;;;;;7.43;2.17;;;20.80;99.90;;;;;;5064766;28;20535;-74
2023/08/04 10:47:40;;;;;;;6.68;1.60;;;21.10;99.90;;;;;;5072945;28;20081;-74
2023/08/04 10:50:07;;;;;;;4.40;1.80;;;21.30;99.90;;;;;;5068211;28;20028;-74
2023/08/04 10:52:34;;;;;;;7.20;2.15;;;21.20;99.90;;;;;;5072889;28;20025;-72
2023/08/04 10:55:00;;;;;;;5.97;2.33;;;21.10;99.90;;;;;;5066388;28;20033;-75
2023/08/04 10:57:31;;;;;;;3.78;1.83;;;20.80;99.90;;;;;;5068362;28;20028;-73
2023/08/04 10:59:58;;;;;;;6.05;2.10;;;20.60;99.90;;;;;;5062566;28;20040;-74
2023/08/04 11:02:25;;;;;;;6.55;3.25;;;20.70;99.90;;;;;;5068568;28;20024;-74
2023/08/04 11:04:52;;;;;;;6.68;1.90;;;20.70;99.90;;;;;;5063032;28;20033;-74
2023/08/04 11:07:19;;;;;;;5.15;2.30;;;20.60;99.90;;;;;;5068589;28;20020;-73
2023/08/04 11:09:45;;;;;;;7.68;2.35;;;20.40;99.90;;;;;;5063213;28;20033;-73
2023/08/04 11:12:11;;;;;;;7.32;2.50;;;20.40;99.90;;;;;;5075218;28;20035;-74
2023/08/04 11:14:38;;;;;;;6.80;2.30;;;20.40;99.90;;;;;;5073778;28;20032;-72
2023/08/04 11:17:15;;;;;;;9.35;2.33;;;20.30;99.90;;;;;;5072946;28;20021;-73
2023/08/04 11:19:44;;;;;;;7.35;2.30;;;20.30;99.90;;;;;;5057333;28;20032;-76
2023/08/04 11:22:15;;;;;;;6.13;2.50;;;20.40;99.90;;;;;;5055088;28;20059;-72
2023/08/04 11:24:42;;;;;;;2.80;1.75;;;20.60;99.90;;;;;;5064658;28;20041;-74
2023/08/04 11:27:12;;;;;;;5.63;1.75;;;21.00;99.90;;;;;;5064112;28;20025;-73
2023/08/04 11:29:38;;;;;;;5.95;2.22;;;21.50;99.90;;;;;;5066679;28;20051;-74
2023/08/04 11:32:11;;;;;;;9.00;1.85;;;21.90;99.90;;;;;;5062464;28;20028;-75
2023/08/04 11:34:40;;;;;;;6.93;2.75;;;22.00;99.90;;;;;;5066543;28;20811;-73
2023/08/04 11:37:06;;;;;;;5.05;2.05;;;21.80;99.90;;;;;;5066729;28;20074;-73
2023/08/04 11:39:32;;;;;;;8.32;1.90;;;21.50;99.90;;;;;;5063537;28;20145;-73
2023/08/04 11:41:57;;;;;;;4.93;2.50;;;21.10;99.90;;;;;;5055433;28;20052;-75
2023/08/04 11:44:23;;;;;;;9.48;2.08;;;20.70;99.90;;;;;;5073573;28;20029;-74
2023/08/04 11:46:49;;;;;;;7.75;2.25;;;20.30;99.90;;;;;;5068508;28;20028;-75
2023/08/04 11:49:15;;;;;;;8.27;2.25;;;19.70;99.90;;;;;;5076109;28;20024;-77
2023/08/04 11:51:44;;;;;;;10.55;3.58;;;18.60;99.90;;;;;;5070750;28;20037;-76
2023/08/04 11:54:21;;;;;;;12.40;3.47;;;17.70;99.90;;;;;;5075325;28;20074;-77
2023/08/04 11:56:56;;;;;;;9.27;3.13;;;17.30;99.90;;;;;;5072492;28;20044;-76
2023/08/04 11:59:22;;;;;;;7.05;3.90;;;17.20;99.90;;;;;;5072946;28;20013;-75
2023/08/04 12:01:48;;;;;;;10.18;3.90;;;17.20;99.90;;;;;;5073808;28;20042;-76
2023/08/04 12:04:25;;;;;;;8.43;3.50;;;17.40;99.90;;;;;;5071931;28;20037;-77
2023/08/04 12:07:05;;;;;;;16.55;3.85;;;17.80;99.90;;;;;;5060634;28;20520;-75
2023/08/04 12:09:31;;;;;;;10.35;3.55;;;18.20;99.90;;;;;;5060211;28;20678;-76
2023/08/04 12:11:57;;;;;;;8.20;3.08;;;18.50;99.90;;;;;;5062952;28;20033;-72
2023/08/04 12:14:23;;;;;;;11.45;2.97;;;18.90;99.90;;;;;;5061310;28;20083;-73
2023/08/04 12:16:56;;;;;;;9.02;3.80;;;19.20;99.90;;;;;;5063590;28;20408;-74
2023/08/04 12:19:29;;;;;;;6.20;2.25;;;19.70;99.90;;;;;;5061962;28;20503;-76
2023/08/04 12:21:58;;;;;;;7.07;2.17;;;19.90;99.90;;;;;;5064716;28;20017;-74
2023/08/04 12:24:24;;;;;;;5.07;2.17;;;20.00;99.90;;;;;;5061481;28;20129;-74
2023/08/04 12:26:50;;;;;;;5.05;2.70;;;19.90;99.90;;;;;;5064460;28;20020;-76
2023/08/04 12:29:16;;;;;;;5.18;2.65;;;19.90;99.90;;;;;;5061975;28;20024;-76
2023/08/04 12:31:42;;;;;;;11.45;2.42;;;20.10;99.90;;;;;;5046861;28;20035;-75
2023/08/04 12:34:09;;;;;;;3.15;1.75;;;20.30;99.90;;;;;;5053558;28;20025;-73
2023/08/04 12:36:34;;;;;;;4.25;2.63;;;20.30;99.90;;;;;;5064958;28;20027;-77
2023/08/04 12:39:03;;;;;;;3.38;1.90;;;20.40;99.90;;;;;;5052168;28;20025;-74
2023/08/04 12:41:29;;;;;;;2.50;1.52;;;20.70;99.90;;;;;;5060826;28;20019;-75